Time;durP1;ratioP1;P1;durP2;ratioP2;P2;SDS_P1;SDS_P2;PMS_P1;PMS_P2;Temp;Humidity;BMP_temperature;BMP_pressure;BME280_temperature;BME280_humidity;BME280_pressure;Samples;Min_cycle;Max_cycle;Signal;HPM_P1;HPM_P2
2021/01/05 00:01:05;;;;;;;57.67;26.38;;;3.00;79.20;;;;;;5081852;28;20029;-40
2021/01/05 00:03:30;;;;;;;55.90;26.17;;;3.00;79.30;;;;;;5081523;28;20047;-43
2021/01/05 00:05:56;;;;;;;60.55;25.67;;;3.10;79.60;;;;;;5095404;28;20043;-41
2021/01/05 00:08:22;;;;;;;67.30;30.00;;;3.10;79.60;;;;;;5093608;28;20022;-41
2021/01/05 00:10:47;;;;;;;55.20;25.67;;;3.10;79.50;;;;;;5094144;28;20032;-41
2021/01/05 00:13:13;;;;;;;58.63;26.30;;;3.10;79.40;;;;;;5090316;28;20028;-41
2021/01/05 00:15:39;;;;;;;58.63;27.08;;;3.10;79.30;;;;;;5080993;28;20068;-40
2021/01/05 00:18:04;;;;;;;52.10;24.80;;;3.10;79.70;;;;;;5090091;28;20016;-41
2021/01/05 00:20:32;;;;;;;57.03;25.30;;;3.10;79.20;;;;;;5086746;28;20143;-41
2021/01/05 00:22:59;;;;;;;61.10;26.05;;;3.10;79.20;;;;;;5096540;28;20477;-41
2021/01/05 00:25:24;;;;;;;56.10;24.85;;;3.10;79.20;;;;;;5095179;28;20071;-41
2021/01/05 00:27:50;;;;;;;53.17;24.33;;;3.10;79.20;;;;;;5096100;28;20058;-41
2021/01/05 00:30:23;;;;;;;50.92;25.05;;;3.10;79.30;;;;;;5095592;28;20040;-41
2021/01/05 00:32:50;;;;;;;50.30;24.58;;;3.10;79.30;;;;;;5096877;28;20016;-40
2021/01/05 00:35:36;;;;;;;54.28;24.80;;;3.10;79.30;;;;;;5093919;28;20357;-40
2021/01/05 00:38:07;;;;;;;59.20;26.58;;;3.20;79.20;;;;;;5096185;28;20020;-40
2021/01/05 00:40:32;;;;;;;;;;;3.20;79.20;;;;;;5095955;28;20028;-41
2021/01/05 00:42:58;;;;;;;43.95;20.05;;;3.20;79.10;;;;;;5095494;28;19915;-40
2021/01/05 00:45:34;;;;;;;53.63;24.45;;;3.20;79.30;;;;;;5095552;28;20189;-41
2021/01/05 00:48:01;;;;;;;46.95;22.38;;;3.20;79.50;;;;;;5095673;28;20020;-41
2021/01/05 00:50:27;;;;;;;60.80;26.30;;;3.20;79.40;;;;;;5095680;28;20115;-40
2021/01/05 00:52:53;;;;;;;50.33;24.15;;;3.10;79.40;;;;;;5095746;28;20017;-41
2021/01/05 00:55:18;;;;;;;52.15;25.05;;;3.10;79.20;;;;;;5095146;28;20284;-41
2021/01/05 00:57:45;;;;;;;47.53;22.30;;;3.10;79.30;;;;;;5095536;28;20136;-40
2021/01/05 01:00:22;;;;;;;50.00;24.50;;;3.20;79.40;;;;;;5095172;28;20272;-41
2021/01/05 01:02:53;;;;;;;48.38;23.63;;;3.20;79.30;;;;;;5095292;28;20441;-40
2021/01/05 01:05:19;;;;;;;54.45;24.13;;;3.10;79.20;;;;;;5095120;28;20044;-41
2021/01/05 01:07:45;;;;;;;52.53;25.33;;;3.20;79.20;;;;;;5095846;28;20093;-41
2021/01/05 01:10:12;;;;;;;49.08;23.27;;;3.20;79.30;;;;;;5095591;28;20097;-41
2021/01/05 01:12:38;;;;;;;50.28;23.95;;;3.20;79.50;;;;;;5094431;28;20107;-41
2021/01/05 01:15:05;;;;;;;49.10;23.80;;;3.20;79.40;;;;;;5095262;28;20111;-40
2021/01/05 01:17:31;;;;;;;47.55;22.15;;;3.20;79.30;;;;;;5095291;28;20138;-41
2021/01/05 01:19:56;;;;;;;48.75;24.70;;;3.20;79.50;;;;;;5094760;28;20146;-40
2021/01/05 01:22:23;;;;;;;46.65;21.73;;;3.20;79.60;;;;;;5095417;28;20051;-41
2021/01/05 01:24:49;;;;;;;54.50;24.45;;;3.20;79.60;;;;;;5094705;28;20482;-41
2021/01/05 01:27:15;;;;;;;50.00;22.95;;;3.20;79.50;;;;;;5094930;28;20060;-41
2021/01/05 01:29:41;;;;;;;42.05;21.88;;;3.20;79.40;;;;;;5094755;28;20030;-40
2021/01/05 01:32:07;;;;;;;49.22;23.77;;;3.30;79.30;;;;;;5095785;28;20024;-41
2021/01/05 01:34:32;;;;;;;44.97;22.77;;;3.30;79.30;;;;;;5094699;28;20367;-41
2021/01/05 01:37:02;;;;;;;46.83;21.80;;;3.30;79.10;;;;;;5095197;28;20055;-41
2021/01/05 01:39:29;;;;;;;49.30;22.58;;;3.30;79.10;;;;;;5094788;28;20024;-41
2021/01/05 01:41:56;;;;;;;50.22;23.67;;;3.30;79.10;;;;;;5095357;28;20036;-41
2021/01/05 01:44:28;;;;;;;58.88;28.38;;;3.30;79.20;;;;;;5094917;28;20110;-41
2021/01/05 01:46:58;;;;;;;50.15;22.38;;;3.30;79.30;;;;;;5095533;28;20067;-41
2021/01/05 01:49:24;;;;;;;44.15;20.67;;;3.30;79.30;;;;;;5094510;28;20107;-41
2021/01/05 01:51:52;;;;;;;39.60;20.80;;;3.30;79.20;;;;;;5097764;28;20115;-40
2021/01/05 01:54:39;;;;;;;33.75;19.02;;;3.30;79.10;;;;;;5097898;28;20073;-41
2021/01/05 01:57:10;;;;;;;38.85;20.38;;;3.30;79.10;;;;;;5098619;28;20056;-41
2021/01/05 02:00:09;;;;;;;43.65;22.80;;;3.30;79.10;;;;;;5098211;28;20040;-40
2021/01/05 02:02:53;;;;;;;40.17;20.35;;;3.30;79.00;;;;;;5098951;28;20035;-41
2021/01/05 02:05:40;;;;;;;36.75;17.98;;;3.30;78.90;;;;;;5098025;28;20066;-40
2021/01/05 02:08:25;;;;;;;31.38;17.45;;;3.30;79.10;;;;;;5098497;28;20085;-40
2021/01/05 02:11:13;;;;;;;34.13;18.48;;;3.30;79.00;;;;;;5098964;28;20035;-41
2021/01/05 02:13:50;;;;;;;38.40;19.58;;;3.30;79.10;;;;;;5097474;28;20054;-41
2021/01/05 02:16:35;;;;;;;34.40;18.67;;;3.30;79.30;;;;;;5098591;28;20401;-41
2021/01/05 02:19:20;;;;;;;37.90;20.30;;;3.40;79.40;;;;;;5097625;28;20301;-41
2021/01/05 02:22:11;;;;;;;36.60;19.58;;;3.40;79.40;;;;;;5098896;28;20085;-40
2021/01/05 02:25:02;;;;;;;32.78;17.92;;;3.40;79.20;;;;;;5097741;28;20016;-41
2021/01/05 02:27:28;;;;;;;35.05;18.45;;;3.40;79.00;;;;;;5098043;28;20047;-41
2021/01/05 02:29:58;;;;;;;31.83;18.38;;;3.40;78.80;;;;;;5097651;28;20036;-41
2021/01/05 02:32:24;;;;;;;34.40;20.05;;;3.40;78.90;;;;;;5098006;28;20020;-40
2021/01/05 02:35:10;;;;;;;28.00;16.73;;;3.40;78.90;;;;;;5093961;28;20043;-41
2021/01/05 02:38:27;;;;;;;32.35;17.77;;;3.40;78.70;;;;;;5096889;28;20055;-41
2021/01/05 02:41:27;;;;;;;31.25;18.52;;;3.40;78.60;;;;;;5096541;28;20214;-41
2021/01/05 02:44:31;;;;;;;39.35;20.33;;;3.40;78.60;;;;;;5094678;28;20131;-41
2021/01/05 02:47:10;;;;;;;32.53;19.00;;;3.40;78.70;;;;;;5097072;28;20131;-41
2021/01/05 02:49:48;;;;;;;32.35;18.65;;;3.40;78.60;;;;;;5092257;28;20024;-41
2021/01/05 02:52:32;;;;;;;34.28;20.60;;;3.40;79.10;;;;;;5096202;28;20020;-41
2021/01/05 02:55:35;;;;;;;34.85;19.33;;;3.40;78.60;;;;;;5093753;28;20045;-41
2021/01/05 02:58:19;;;;;;;31.40;18.38;;;3.40;78.60;;;;;;5093536;28;20020;-41
2021/01/05 03:01:14;;;;;;;36.10;20.55;;;3.30;78.50;;;;;;5096781;28;20027;-41
2021/01/05 03:03:47;;;;;;;31.85;18.92;;;3.30;78.50;;;;;;5092516;28;20012;-41
2021/01/05 03:06:21;;;;;;;32.38;19.05;;;3.30;78.90;;;;;;5096377;28;20138;-41
2021/01/05 03:09:28;;;;;;;36.67;21.05;;;3.30;79.00;;;;;;5084675;28;20070;-41
2021/01/05 03:12:05;;;;;;;35.22;18.45;;;3.30;78.90;;;;;;5087861;28;20117;-45
2021/01/05 03:15:08;;;;;;;30.80;17.65;;;3.30;78.80;;;;;;5083963;28;20017;-40
2021/01/05 03:17:44;;;;;;;32.83;18.58;;;3.30;78.80;;;;;;5084911;28;20406;-40
2021/01/05 03:20:25;;;;;;;36.92;19.15;;;3.30;79.00;;;;;;5091181;28;20052;-41
2021/01/05 03:22:58;;;;;;;35.60;20.55;;;3.40;79.00;;;;;;5093884;28;20028;-41
2021/01/05 03:25:26;;;;;;;31.70;19.60;;;3.40;79.10;;;;;;5086174;28;20028;-41
2021/01/05 03:27:55;;;;;;;38.13;21.13;;;3.40;79.10;;;;;;5090958;28;20048;-41
2021/01/05 03:30:40;;;;;;;32.85;19.83;;;3.40;79.00;;;;;;5081787;28;20035;-41
2021/01/05 03:33:06;;;;;;;35.70;19.40;;;3.40;78.80;;;;;;5085776;28;20023;-41
2021/01/05 03:35:32;;;;;;;35.08;19.23;;;3.40;78.70;;;;;;5084640;28;20044;-41
2021/01/05 03:37:58;;;;;;;36.78;20.88;;;3.40;78.70;;;;;;5094278;28;20318;-41
2021/01/05 03:40:25;;;;;;;35.88;19.33;;;3.40;78.60;;;;;;5095112;28;20028;-41
2021/01/05 03:42:51;;;;;;;33.33;19.70;;;3.40;78.60;;;;;;5087929;28;20393;-41
2021/01/05 03:45:21;;;;;;;35.17;21.30;;;3.40;78.50;;;;;;5075488;28;20329;-40
2021/01/05 03:47:47;;;;;;;38.90;21.83;;;3.40;78.70;;;;;;5074496;28;20016;-41
2021/01/05 03:50:14;;;;;;;36.42;21.38;;;3.40;78.80;;;;;;5074963;28;20031;-41
2021/01/05 03:52:40;;;;;;;35.97;21.25;;;3.40;78.70;;;;;;5076292;28;20024;-41
2021/01/05 03:55:06;;;;;;;36.30;21.10;;;3.40;78.60;;;;;;5074880;28;20027;-41
2021/01/05 03:57:32;;;;;;;35.00;19.77;;;3.40;78.70;;;;;;5076542;28;20078;-41
2021/01/05 03:59:58;;;;;;;36.38;21.33;;;3.40;78.90;;;;;;5075786;28;20029;-40
2021/01/05 04:02:23;;;;;;;33.78;20.42;;;3.40;78.80;;;;;;5075959;28;20426;-41
2021/01/05 04:04:49;;;;;;;35.47;20.02;;;3.40;78.70;;;;;;5075517;28;20093;-40
2021/01/05 04:07:15;;;;;;;34.70;19.35;;;3.50;78.70;;;;;;5076475;28;20196;-42
2021/01/05 04:09:40;;;;;;;36.15;21.98;;;3.50;78.60;;;;;;5075572;28;20024;-40
2021/01/05 04:12:06;;;;;;;42.97;22.83;;;3.50;78.60;;;;;;5075379;28;20422;-41
2021/01/05 04:14:32;;;;;;;48.10;25.95;;;3.50;78.60;;;;;;5074858;28;20103;-41
2021/01/05 04:16:57;;;;;;;42.20;24.35;;;3.50;78.70;;;;;;5075656;28;20028;-41
2021/01/05 04:19:23;;;;;;;50.03;27.15;;;3.50;78.80;;;;;;5075098;28;20356;-41
2021/01/05 04:21:50;;;;;;;51.80;25.95;;;3.50;78.80;;;;;;5076299;28;20463;-40
2021/01/05 04:24:16;;;;;;;57.35;28.88;;;3.60;78.70;;;;;;5087666;28;20035;-40
2021/01/05 04:26:43;;;;;;;61.53;31.02;;;3.60;78.70;;;;;;5077109;28;20036;-40
2021/01/05 04:29:08;;;;;;;81.22;37.28;;;3.60;78.40;;;;;;5084343;28;20111;-41
2021/01/05 04:31:42;;;;;;;70.78;33.90;;;3.60;78.40;;;;;;5092034;28;20497;-41
2021/01/05 04:34:09;;;;;;;72.95;32.75;;;3.50;78.60;;;;;;5080908;28;20035;-41
2021/01/05 04:36:35;;;;;;;71.30;33.13;;;3.60;78.70;;;;;;5087637;28;20448;-41
2021/01/05 04:39:02;;;;;;;63.08;28.70;;;3.60;78.70;;;;;;5094998;28;20024;-41
2021/01/05 04:41:30;;;;;;;62.53;28.02;;;3.60;78.50;;;;;;5095085;28;20130;-41
2021/01/05 04:44:02;;;;;;;63.35;32.13;;;3.60;78.40;;;;;;5094522;28;20119;-41
2021/01/05 04:46:56;;;;;;;65.30;33.58;;;3.60;78.50;;;;;;5092107;28;20043;-40
2021/01/05 04:49:30;;;;;;;65.28;31.52;;;3.60;78.70;;;;;;5055282;28;20505;-41
2021/01/05 04:52:09;;;;;;;56.58;29.00;;;3.60;78.70;;;;;;5082397;28;20032;-41
2021/01/05 04:54:41;;;;;;;59.85;29.88;;;3.70;78.80;;;;;;5083168;28;20024;-40
2021/01/05 04:57:19;;;;;;;47.92;25.65;;;3.70;78.90;;;;;;5087874;28;20106;-41
2021/01/05 04:59:58;;;;;;;52.58;25.77;;;3.70;78.90;;;;;;5079003;28;20032;-40
2021/01/05 05:02:31;;;;;;;46.17;23.70;;;3.70;78.90;;;;;;5088796;28;20036;-41
2021/01/05 05:05:05;;;;;;;43.88;22.85;;;3.70;78.80;;;;;;5083613;28;20085;-41
2021/01/05 05:07:30;;;;;;;60.25;28.67;;;3.70;78.80;;;;;;5085482;28;20362;-41
2021/01/05 05:09:59;;;;;;;49.95;25.48;;;3.80;78.90;;;;;;5085070;28;20056;-41
2021/01/05 05:12:43;;;;;;;45.22;23.98;;;3.80;78.90;;;;;;5089785;28;20069;-41
2021/01/05 05:15:46;;;;;;;41.83;23.35;;;3.80;78.80;;;;;;5092072;28;20471;-41
2021/01/05 05:18:31;;;;;;;52.35;26.05;;;3.90;78.70;;;;;;5079972;28;20033;-41
2021/01/05 05:21:23;;;;;;;46.45;25.52;;;3.90;78.70;;;;;;5086795;28;20139;-42
2021/01/05 05:23:59;;;;;;;39.60;23.85;;;3.90;78.70;;;;;;5081406;28;20024;-41
2021/01/05 05:26:46;;;;;;;44.40;24.23;;;3.90;78.70;;;;;;5083424;28;20040;-41
2021/01/05 05:29:24;;;;;;;41.38;24.02;;;3.90;78.60;;;;;;5088494;28;20445;-41
2021/01/05 05:31:51;;;;;;;39.47;23.85;;;3.80;78.60;;;;;;5082569;28;20488;-41
2021/01/05 05:34:24;;;;;;;35.90;19.67;;;3.90;78.60;;;;;;5088850;28;20078;-41
2021/01/05 05:36:57;;;;;;;43.30;24.05;;;3.90;78.70;;;;;;5082862;28;20440;-41
2021/01/05 05:39:49;;;;;;;37.35;21.27;;;3.80;78.80;;;;;;5086751;28;20016;-41
2021/01/05 05:42:42;;;;;;;39.83;21.25;;;3.80;78.80;;;;;;5090880;28;20390;-41
2021/01/05 05:45:11;;;;;;;35.47;21.02;;;3.80;78.80;;;;;;5081696;28;20020;-41
2021/01/05 05:47:54;;;;;;;32.85;16.90;;;3.80;78.70;;;;;;5096797;28;20077;-41
2021/01/05 05:50:34;;;;;;;35.65;21.35;;;3.90;79.00;;;;;;5087021;28;20457;-41
2021/01/05 05:53:22;;;;;;;34.67;19.67;;;3.90;79.00;;;;;;5085714;28;20111;-41
2021/01/05 05:56:14;;;;;;;28.50;17.83;;;3.90;79.00;;;;;;5092626;28;20082;-41
2021/01/05 05:58:45;;;;;;;31.45;19.73;;;3.90;78.80;;;;;;5097003;28;20031;-41
2021/01/05 06:01:18;;;;;;;31.27;19.25;;;3.90;78.80;;;;;;5098812;28;20312;-41
2021/01/05 06:03:43;;;;;;;33.60;19.45;;;3.90;78.90;;;;;;5097436;28;20028;-41
2021/01/05 06:06:10;;;;;;;43.65;22.17;;;3.90;79.00;;;;;;5097713;28;20046;-41
2021/01/05 06:08:35;;;;;;;34.33;19.13;;;3.90;78.90;;;;;;5096729;28;20027;-41
2021/01/05 06:11:02;;;;;;;33.95;18.88;;;4.00;79.00;;;;;;5098449;28;20037;-41
2021/01/05 06:13:28;;;;;;;31.95;18.30;;;4.00;79.00;;;;;;5097540;28;20024;-42
2021/01/05 06:15:53;;;;;;;56.78;21.98;;;4.00;79.00;;;;;;5097275;28;20275;-41
2021/01/05 06:18:19;;;;;;;29.17;17.13;;;4.00;78.90;;;;;;5092141;28;20024;-41
2021/01/05 06:20:46;;;;;;;29.15;16.77;;;4.10;79.00;;;;;;5091696;28;20405;-42
2021/01/05 06:23:12;;;;;;;28.98;17.83;;;4.10;78.90;;;;;;5095823;28;20063;-43
2021/01/05 06:25:38;;;;;;;36.13;21.40;;;4.10;78.80;;;;;;5096313;28;20044;-42
2021/01/05 06:28:05;;;;;;;68.50;41.50;;;4.10;78.80;;;;;;5082747;28;20070;-43
2021/01/05 06:30:31;;;;;;;50.45;33.30;;;4.20;78.80;;;;;;5083578;28;20058;-42
2021/01/05 06:32:57;;;;;;;43.38;26.98;;;4.20;78.90;;;;;;5095966;28;20024;-42
2021/01/05 06:35:23;;;;;;;95.25;44.40;;;4.20;78.80;;;;;;5085144;28;20350;-42
2021/01/05 06:37:52;;;;;;;57.35;29.08;;;4.20;78.70;;;;;;5088803;28;20442;-42
2021/01/05 06:40:22;;;;;;;71.55;37.05;;;4.20;78.40;;;;;;5095382;28;20118;-40
2021/01/05 06:42:49;;;;;;;101.53;49.27;;;4.30;78.50;;;;;;5095283;28;20443;-42
2021/01/05 06:45:19;;;;;;;89.82;41.60;;;4.30;78.50;;;;;;5095625;28;20055;-42
2021/01/05 06:47:45;;;;;;;112.72;55.38;;;4.30;78.40;;;;;;5097049;28;20051;-42
2021/01/05 06:50:12;;;;;;;91.40;45.97;;;4.30;78.20;;;;;;5097351;28;20054;-42
2021/01/05 06:52:37;;;;;;;58.33;31.52;;;4.30;78.20;;;;;;5097797;28;20078;-42
2021/01/05 06:55:03;;;;;;;61.40;35.38;;;4.30;78.40;;;;;;5095054;28;20055;-42
2021/01/05 06:57:29;;;;;;;61.33;33.90;;;4.30;78.40;;;;;;5094059;28;20060;-42
2021/01/05 06:59:55;;;;;;;48.30;28.25;;;4.30;78.20;;;;;;5074231;28;20326;-42
2021/01/05 07:02:20;;;;;;;40.72;26.65;;;4.30;78.20;;;;;;5075716;28;20020;-41
2021/01/05 07:04:46;;;;;;;36.60;22.77;;;4.30;78.10;;;;;;5073752;28;20390;-40
2021/01/05 07:07:12;;;;;;;36.53;25.02;;;4.30;78.10;;;;;;5079226;28;20043;-41
2021/01/05 07:09:37;;;;;;;36.35;23.05;;;4.40;78.20;;;;;;5095038;28;20031;-40
2021/01/05 07:12:04;;;;;;;36.08;23.67;;;4.40;78.20;;;;;;5091803;28;20028;-41
2021/01/05 07:14:29;;;;;;;37.33;24.10;;;4.40;78.20;;;;;;5094987;28;20119;-40
2021/01/05 07:16:55;;;;;;;60.55;35.90;;;4.40;78.10;;;;;;5086361;28;20094;-45
2021/01/05 07:19:21;;;;;;;53.45;32.38;;;4.40;78.10;;;;;;5115699;28;20023;-40
2021/01/05 07:21:48;;;;;;;50.60;31.08;;;4.40;78.10;;;;;;5117991;28;20039;-40
2021/01/05 07:24:14;;;;;;;51.88;31.27;;;4.40;78.10;;;;;;5117028;28;20024;-45
2021/01/05 07:26:49;;;;;;;44.63;27.67;;;4.40;78.10;;;;;;5116460;28;20440;-41
2021/01/05 07:29:21;;;;;;;44.80;27.63;;;4.40;78.00;;;;;;5074829;28;20024;-40
2021/01/05 07:31:49;;;;;;;44.05;26.75;;;4.40;77.90;;;;;;5076855;28;20086;-41
2021/01/05 07:34:16;;;;;;;53.60;32.15;;;4.40;77.80;;;;;;5074127;28;20024;-41
2021/01/05 07:36:48;;;;;;;44.35;25.52;;;4.40;77.80;;;;;;5084244;28;20036;-41
2021/01/05 07:39:19;;;;;;;36.00;21.88;;;4.40;78.00;;;;;;5074453;28;20035;-41
2021/01/05 07:41:46;;;;;;;45.10;24.77;;;4.40;77.50;;;;;;5095367;28;20152;-40
2021/01/05 07:44:13;;;;;;;39.15;22.48;;;4.40;77.40;;;;;;5092931;28;20595;-42
2021/01/05 07:46:41;;;;;;;42.10;23.58;;;4.40;77.30;;;;;;5093820;28;20051;-41
2021/01/05 07:49:09;;;;;;;41.80;24.15;;;4.30;77.10;;;;;;5093272;28;20578;-41
2021/01/05 07:51:36;;;;;;;38.55;23.48;;;4.30;76.90;;;;;;5094889;28;20031;-41
2021/01/05 07:54:04;;;;;;;40.17;23.10;;;4.30;77.00;;;;;;5093238;28;20024;-41
2021/01/05 07:56:32;;;;;;;45.78;26.30;;;4.30;77.10;;;;;;5076534;28;20028;-41
2021/01/05 07:59:00;;;;;;;46.23;26.53;;;4.30;77.00;;;;;;5056807;28;20032;-42
2021/01/05 08:01:31;;;;;;;41.22;25.42;;;4.30;76.90;;;;;;5073793;28;20039;-41
2021/01/05 08:03:58;;;;;;;42.60;26.40;;;4.30;77.00;;;;;;5057648;28;20042;-41
2021/01/05 08:06:28;;;;;;;45.65;28.13;;;4.30;77.00;;;;;;5075358;28;20076;-41
2021/01/05 08:08:55;;;;;;;38.05;23.40;;;4.30;76.90;;;;;;5073551;28;20188;-41
2021/01/05 08:11:22;;;;;;;44.88;27.38;;;4.30;77.00;;;;;;5081368;28;20032;-40
2021/01/05 08:13:48;;;;;;;42.78;25.90;;;4.30;77.20;;;;;;5096604;28;20434;-40
2021/01/05 08:16:15;;;;;;;50.63;28.15;;;4.30;77.10;;;;;;5089782;28;20161;-44
2021/01/05 08:18:42;;;;;;;43.53;27.45;;;4.30;77.10;;;;;;5091147;28;20022;-41
2021/01/05 08:21:10;;;;;;;42.92;26.75;;;4.30;77.20;;;;;;5093105;28;20047;-42
2021/01/05 08:23:36;;;;;;;48.63;31.08;;;4.30;77.30;;;;;;5092965;28;20024;-41
2021/01/05 08:26:02;;;;;;;49.17;28.10;;;4.30;77.30;;;;;;5092778;28;20496;-40
2021/01/05 08:28:30;;;;;;;45.47;26.23;;;4.30;76.90;;;;;;5100946;28;20089;-40
2021/01/05 08:30:56;;;;;;;48.25;29.48;;;4.30;76.80;;;;;;5076379;28;20101;-41
2021/01/05 08:33:23;;;;;;;53.25;28.40;;;4.30;76.50;;;;;;5093760;28;20434;-42
2021/01/05 08:35:49;;;;;;;96.20;50.33;;;4.30;76.60;;;;;;5094222;28;20042;-40
2021/01/05 08:38:14;;;;;;;103.63;57.80;;;4.30;76.60;;;;;;5094448;28;20102;-42
2021/01/05 08:40:40;;;;;;;101.07;59.47;;;4.30;76.50;;;;;;5094313;28;20028;-41
2021/01/05 08:43:09;;;;;;;56.40;35.10;;;4.20;76.50;;;;;;5094198;28;20023;-42
2021/01/05 08:45:35;;;;;;;53.60;31.30;;;4.20;76.30;;;;;;5093574;28;20075;-38
2021/01/05 08:48:01;;;;;;;51.92;31.05;;;4.20;76.40;;;;;;5093036;28;20081;-47
2021/01/05 08:50:29;;;;;;;56.53;33.97;;;4.20;76.40;;;;;;5087551;28;20322;-39
2021/01/05 08:53:06;;;;;;;52.90;32.33;;;4.20;76.40;;;;;;5081339;28;20032;-39
2021/01/05 08:55:36;;;;;;;81.53;45.58;;;4.10;76.40;;;;;;5087097;28;20032;-40
2021/01/05 08:58:03;;;;;;;81.95;45.10;;;4.10;76.40;;;;;;5098959;28;20036;-39
2021/01/05 09:00:29;;;;;;;87.53;47.40;;;4.10;76.50;;;;;;5099263;28;20059;-39
2021/01/05 09:02:54;;;;;;;87.90;46.47;;;4.10;76.30;;;;;;5091860;28;20036;-40
2021/01/05 09:05:20;;;;;;;62.40;34.97;;;4.10;76.20;;;;;;5092997;28;20047;-40
2021/01/05 09:07:46;;;;;;;269.98;106.38;;;4.10;76.50;;;;;;5098829;28;20069;-40
2021/01/05 09:10:38;;;;;;;91.22;44.50;;;4.10;76.80;;;;;;5099265;28;20306;-40
2021/01/05 09:13:03;;;;;;;90.18;46.10;;;4.10;76.60;;;;;;5100675;28;20032;-41
2021/01/05 09:15:29;;;;;;;100.63;48.50;;;4.10;76.70;;;;;;5103737;28;20031;-41
2021/01/05 09:17:55;;;;;;;61.45;36.55;;;4.10;76.70;;;;;;5097238;28;20069;-41
2021/01/05 09:20:23;;;;;;;81.13;44.85;;;4.10;76.50;;;;;;5097038;28;20059;-40
2021/01/05 09:22:50;;;;;;;145.50;69.03;;;4.10;76.30;;;;;;5116750;28;20161;-44
2021/01/05 09:25:16;;;;;;;86.57;46.17;;;4.10;76.20;;;;;;5100368;28;20032;-39
2021/01/05 09:27:42;;;;;;;58.42;31.35;;;4.00;76.10;;;;;;5097241;28;20179;-40
2021/01/05 09:30:14;;;;;;;65.00;36.30;;;4.10;76.10;;;;;;5097448;28;20059;-40
2021/01/05 09:32:40;;;;;;;60.83;37.25;;;4.00;76.10;;;;;;5098644;28;20024;-40
2021/01/05 09:35:07;;;;;;;57.60;33.60;;;4.00;76.10;;;;;;5097325;28;20030;-39
2021/01/05 09:37:33;;;;;;;67.40;38.40;;;4.00;76.20;;;;;;5096395;28;20015;-41
2021/01/05 09:39:58;;;;;;;54.22;32.53;;;4.00;76.10;;;;;;5098960;28;20495;-41
2021/01/05 09:42:27;;;;;;;55.65;29.67;;;4.00;75.90;;;;;;5110368;28;20035;-42
2021/01/05 09:44:53;;;;;;;56.45;32.38;;;4.00;75.60;;;;;;5112556;28;20051;-40
2021/01/05 09:47:22;;;;;;;104.47;56.70;;;4.00;75.60;;;;;;5096373;28;20075;-41
2021/01/05 09:49:49;;;;;;;75.60;43.15;;;4.00;75.60;;;;;;5100518;28;20097;-41
2021/01/05 09:52:15;;;;;;;66.80;36.20;;;4.00;75.60;;;;;;5098008;28;20411;-41
2021/01/05 09:54:44;;;;;;;63.03;35.10;;;4.00;75.40;;;;;;5097827;28;20051;-41
2021/01/05 09:57:10;;;;;;;76.78;41.20;;;3.90;75.40;;;;;;5097837;28;20311;-40
2021/01/05 09:59:38;;;;;;;60.05;31.85;;;3.90;75.60;;;;;;5095271;28;20329;-40
2021/01/05 10:02:05;;;;;;;59.13;33.53;;;3.90;75.40;;;;;;5097120;28;20089;-41
2021/01/05 10:04:31;;;;;;;66.88;38.58;;;3.90;75.80;;;;;;5097857;28;20024;-39
2021/01/05 10:06:56;;;;;;;65.32;33.85;;;3.90;75.50;;;;;;5097512;28;20105;-40
2021/01/05 10:09:22;;;;;;;73.00;37.17;;;3.90;75.60;;;;;;5090869;28;20020;-41
2021/01/05 10:11:48;;;;;;;63.47;33.50;;;3.90;75.50;;;;;;5090214;28;20032;-38
2021/01/05 10:14:17;;;;;;;61.88;34.13;;;3.90;75.60;;;;;;5098083;28;20024;-39
2021/01/05 10:16:43;;;;;;;60.60;33.33;;;3.90;75.40;;;;;;5097936;28;20060;-39
2021/01/05 10:19:12;;;;;;;77.25;39.78;;;3.90;75.30;;;;;;5094844;28;20027;-38
2021/01/05 10:21:40;;;;;;;77.60;38.75;;;3.90;75.60;;;;;;5098162;28;20035;-39
2021/01/05 10:24:09;;;;;;;76.70;38.58;;;3.80;75.60;;;;;;5094793;28;20035;-40
2021/01/05 10:26:35;;;;;;;71.63;37.75;;;3.90;75.80;;;;;;5094312;28;20052;-40
2021/01/05 10:29:03;;;;;;;80.43;42.28;;;3.90;75.90;;;;;;5094245;28;20120;-41
2021/01/05 10:31:40;;;;;;;91.28;48.78;;;3.90;76.10;;;;;;5095012;28;20059;-40
2021/01/05 10:34:07;;;;;;;74.72;40.05;;;3.90;76.10;;;;;;5094959;28;20345;-41
2021/01/05 10:36:33;;;;;;;77.15;38.33;;;4.00;76.10;;;;;;5094397;28;20028;-40
2021/01/05 10:38:59;;;;;;;73.40;36.20;;;3.90;76.00;;;;;;5094808;28;20024;-41
2021/01/05 10:41:39;;;;;;;78.28;39.17;;;4.00;76.00;;;;;;5096954;28;20024;-36
2021/01/05 10:44:05;;;;;;;78.60;39.28;;;4.00;75.70;;;;;;5103537;28;20096;-41
2021/01/05 10:46:31;;;;;;;77.80;37.97;;;4.00;75.80;;;;;;5113760;28;20047;-41
2021/01/05 10:48:57;;;;;;;71.57;37.33;;;4.00;75.70;;;;;;5096575;28;20329;-42
2021/01/05 10:51:23;;;;;;;76.97;37.35;;;4.00;75.60;;;;;;5097314;28;20027;-41
2021/01/05 10:53:49;;;;;;;77.28;36.80;;;4.00;75.50;;;;;;5096492;28;20437;-40
2021/01/05 10:56:16;;;;;;;73.75;35.80;;;4.00;75.00;;;;;;5097194;28;20115;-41
2021/01/05 10:58:42;;;;;;;71.95;36.20;;;4.00;75.00;;;;;;5096589;28;20123;-39
2021/01/05 11:01:08;;;;;;;68.72;36.28;;;3.90;75.10;;;;;;5096026;28;20456;-40
2021/01/05 11:03:34;;;;;;;66.63;33.72;;;3.90;75.30;;;;;;5096900;28;20483;-41
2021/01/05 11:06:01;;;;;;;71.78;36.45;;;3.80;75.40;;;;;;5096950;28;20044;-41
2021/01/05 11:08:26;;;;;;;73.05;36.05;;;3.80;75.70;;;;;;5090481;28;20039;-41
2021/01/05 11:10:52;;;;;;;73.57;38.10;;;3.90;75.90;;;;;;5091011;28;20118;-41
2021/01/05 11:13:18;;;;;;;72.57;38.42;;;3.90;75.70;;;;;;5095266;28;20112;-41
2021/01/05 11:15:43;;;;;;;75.13;40.90;;;3.90;75.60;;;;;;5082307;28;20043;-39
2021/01/05 11:18:09;;;;;;;70.25;36.97;;;3.90;75.50;;;;;;5087660;28;20358;-41
2021/01/05 11:20:35;;;;;;;65.07;34.45;;;3.90;75.30;;;;;;5095920;28;20048;-40
2021/01/05 11:23:01;;;;;;;66.03;34.30;;;4.00;75.20;;;;;;5097221;28;20408;-40
2021/01/05 11:25:26;;;;;;;74.78;37.17;;;3.90;74.90;;;;;;5103729;28;20071;-39
2021/01/05 11:27:53;;;;;;;66.18;35.72;;;3.90;74.90;;;;;;5097543;28;20438;-39
2021/01/05 11:30:21;;;;;;;74.38;38.20;;;3.90;74.80;;;;;;5095962;28;20032;-38
2021/01/05 11:32:47;;;;;;;77.18;39.28;;;3.90;74.80;;;;;;5096488;28;20426;-40
2021/01/05 11:35:15;;;;;;;88.72;43.25;;;3.90;74.80;;;;;;5095822;28;20111;-39
2021/01/05 11:37:41;;;;;;;71.88;37.03;;;3.80;74.80;;;;;;5096545;28;20085;-38
2021/01/05 11:40:08;;;;;;;79.07;40.80;;;3.80;74.80;;;;;;5095058;28;20028;-39
2021/01/05 11:42:34;;;;;;;72.60;38.15;;;3.80;74.70;;;;;;5086439;28;20024;-40
2021/01/05 11:44:59;;;;;;;101.90;51.05;;;3.80;74.90;;;;;;5093523;28;20028;-41
2021/01/05 11:47:27;;;;;;;79.85;41.75;;;3.80;75.00;;;;;;5093981;28;20086;-41
2021/01/05 11:49:52;;;;;;;86.10;46.42;;;3.80;75.20;;;;;;5086114;28;20056;-41
2021/01/05 11:52:18;;;;;;;104.82;51.83;;;3.70;75.30;;;;;;5095877;28;20467;-42
2021/01/05 11:54:44;;;;;;;79.75;39.28;;;3.80;75.40;;;;;;5095337;28;20059;-41
2021/01/05 11:57:11;;;;;;;94.35;45.72;;;3.80;75.30;;;;;;5095314;28;20032;-41
2021/01/05 11:59:37;;;;;;;76.68;38.97;;;3.80;75.50;;;;;;5095278;28;20047;-41
2021/01/05 12:02:03;;;;;;;75.22;40.50;;;3.80;75.30;;;;;;5100032;28;20035;-40
2021/01/05 12:04:29;;;;;;;72.20;38.95;;;3.80;75.30;;;;;;5105397;28;20129;-41
2021/01/05 12:06:56;;;;;;;66.18;35.15;;;3.80;75.20;;;;;;5114339;28;20050;-40
2021/01/05 12:09:24;;;;;;;61.35;32.53;;;3.80;74.80;;;;;;5103510;28;20126;-41
2021/01/05 12:12:01;;;;;;;67.28;37.22;;;3.80;74.80;;;;;;5114893;28;20023;-41
2021/01/05 12:14:27;;;;;;;72.40;38.47;;;3.80;75.10;;;;;;5097405;28;20028;-40
2021/01/05 12:16:57;;;;;;;69.03;35.10;;;3.80;75.50;;;;;;5095106;28;20028;-40
2021/01/05 12:19:28;;;;;;;61.97;33.25;;;3.80;75.50;;;;;;5093203;28;20119;-40
2021/01/05 12:21:57;;;;;;;62.40;34.03;;;3.90;75.40;;;;;;5088538;28;20452;-40
2021/01/05 12:24:26;;;;;;;70.57;38.47;;;3.90;75.20;;;;;;5086481;28;20445;-38
2021/01/05 12:26:52;;;;;;;80.10;45.20;;;3.90;75.10;;;;;;5085720;28;20040;-38
2021/01/05 12:29:21;;;;;;;70.38;38.20;;;3.90;74.80;;;;;;5085742;28;20035;-40
2021/01/05 12:31:50;;;;;;;70.88;38.58;;;3.90;74.80;;;;;;5087638;28;20028;-39
2021/01/05 12:34:19;;;;;;;70.03;38.88;;;3.90;74.70;;;;;;5093797;28;20027;-40
2021/01/05 12:36:45;;;;;;;54.53;30.95;;;3.90;74.70;;;;;;5087023;28;20311;-40
2021/01/05 12:39:17;;;;;;;61.17;33.75;;;3.90;74.60;;;;;;5081569;28;20031;-40
2021/01/05 12:41:43;;;;;;;68.70;37.22;;;3.90;74.60;;;;;;5095187;28;20028;-40
2021/01/05 12:44:12;;;;;;;66.63;36.15;;;3.90;74.70;;;;;;5094295;28;20456;-42
2021/01/05 12:46:38;;;;;;;63.92;34.60;;;3.90;74.60;;;;;;5094533;28;20040;-41
2021/01/05 12:49:06;;;;;;;87.55;43.60;;;3.90;74.60;;;;;;5077865;28;20083;-41
2021/01/05 12:51:34;;;;;;;86.95;45.53;;;3.90;74.60;;;;;;5085824;28;20032;-40